Cotes De La Manche — FQBE — position and weather

sailwx.info

Track history (hours):
 
Tides and Currents Weather Stations Pressure Air Temp Water Temp Dewpoint Dewpoint Depression Visibility Wind Speed Wind Dir Waves Ship Positions

Cotes De La Manche

Last reported at 2017-Apr-24 11:14 UTC. Time now 2017-Apr-26 04:02 UTC.
Position N 50°39' W 000°55'.

Length 25 m; draft 3.7 m.

Type: . MMSI: 227091000.

Date/timePositionNaut miles runAvg speedWind from/ knotsBaromVisibWave heightAir tempDewpointWater temp
2017-Apr-24 11:14N 50°39' W 000°55'1 5.6
2017-Apr-24 11:00N 50°41' W 000°54'1 1.6
2017-Apr-24 10:25N 50°41' W 000°53'2 3.9
2017-Apr-24 10:00N 50°40' W 000°51'8 2.1
2017-Apr-24 06:05N 50°37' W 000°39'1 5.9
2017-Apr-24 05:55N 50°38' W 000°39'2 5.2
2017-Apr-24 05:29N 50°40' W 000°39'2 5.1
2017-Apr-24 05:00N 50°42' W 000°39'0 0.6
2017-Apr-24 04:28N 50°43' W 000°39'0 0.0
2017-Apr-24 03:58N 50°43' W 000°39'0 0.0
2017-Apr-24 03:01N 50°43' W 000°39'0 0.0
2017-Apr-24 02:58N 50°43' W 000°39'0 0.0
2017-Apr-24 02:28N 50°43' W 000°39'0 0.1
2017-Apr-24 01:58N 50°43' W 000°39'0 0.1
2017-Apr-24 01:28N 50°43' W 000°39'0 0.0
2017-Apr-24 00:49N 50°43' W 000°39'0 0.0
2017-Apr-24 00:25N 50°43' W 000°39'0 0.1
2017-Apr-23 23:55N 50°43' W 000°39'0 0.1
2017-Apr-23 23:25N 50°43' W 000°39'0 0.0
2017-Apr-23 22:55N 50°43' W 000°39'0 0.0
2017-Apr-23 22:28N 50°43' W 000°39'0 0.0
2017-Apr-23 21:55N 50°43' W 000°39'0 0.0
2017-Apr-23 21:28N 50°43' W 000°39'0 0.0
2017-Apr-23 20:58N 50°43' W 000°39'0 0.0
2017-Apr-23 20:28N 50°43' W 000°39'2 3.5
2017-Apr-23 20:01N 50°42' W 000°36'3 5.6
2017-Apr-23 19:30N 50°41' W 000°32'3 5.5
2017-Apr-23 19:00N 50°40' W 000°29'2 5.0
2017-Apr-23 18:30N 50°38' W 000°25'3 5.3
2017-Apr-23 18:00N 50°37' W 000°21'3 5.2
2017-Apr-23 17:30N 50°37' W 000°17'3 5.2
2017-Apr-23 17:00N 50°36' W 000°13'1 2.0
2017-Apr-23 16:30N 50°36' W 000°12'0 0.5
2017-Apr-23 16:00N 50°36' W 000°12'3 5.0
2017-Apr-23 15:30N 50°37' W 000°08'2 5.1
2017-Apr-23 15:00N 50°38' W 000°05'2 1.9
2017-Apr-23 14:00N 50°39' W 000°02'2 3.1
2017-Apr-23 13:30N 50°39' E 000°00'3 5.2
2017-Apr-23 13:00N 50°40' E 000°04'3 5.1
2017-Apr-23 12:30N 50°42' E 000°07'1 2.1
2017-Apr-23 12:00N 50°42' E 000°09'1 2.5
2017-Apr-23 11:30N 50°42' E 000°11'3 5.2
2017-Apr-23 10:55N 50°41' E 000°16'2 5.2
2017-Apr-23 10:30N 50°41' E 000°19'3 5.0
2017-Apr-23 10:00N 50°41' E 000°23'2 3.8
2017-Apr-23 09:30N 50°40' E 000°26'0 0.5
2017-Apr-23 09:00N 50°40' E 000°26'1 2.1
2017-Apr-23 08:30N 50°40' E 000°27'3 5.2
2017-Apr-23 08:00N 50°41' E 000°31'3 5.0
2017-Apr-23 07:30N 50°42' E 000°35'2 4.8
2017-Apr-23 07:00N 50°43' E 000°38'2 3.6
2017-Apr-23 06:28N 50°44' E 000°41'0 0.5
2017-Apr-23 06:01N 50°44' E 000°41'2 4.3
2017-Apr-23 05:30N 50°46' E 000°41'3 5.0
2017-Apr-23 05:00N 50°49' E 000°42'2 5.0
2017-Apr-23 04:30N 50°51' E 000°43'0 0.0
2017-Apr-22 17:54N 50°51' E 000°43'5 3.3
2017-Apr-22 16:14N 50°49' E 000°51'19 3.5
2017-Apr-22 10:41N 51°01' E 001°16'1 5.0
2017-Apr-22 10:29N 51°02' E 001°17'2 5.0
2017-Apr-22 09:59N 51°04' E 001°19'2 4.5
2017-Apr-22 09:30N 51°05' E 001°22'1 1.1
2017-Apr-22 09:00N 51°05' E 001°23'2 3.9
2017-Apr-22 08:29N 51°03' E 001°24'4 2.8
2017-Apr-22 07:06N 50°59' E 001°27'1 3.2
2017-Apr-22 06:51N 50°59' E 001°28'9 1.0
2017-Apr-21 21:47N 50°55' E 001°40'0 0.0
2017-Apr-21 21:21N 50°55' E 001°40'0 0.0
2017-Apr-21 20:57N 50°55' E 001°40'0 0.0
2017-Apr-21 20:22N 50°55' E 001°40'0 0.0
2017-Apr-21 19:55N 50°55' E 001°40'0 0.0
2017-Apr-21 19:29N 50°55' E 001°40'0 0.0
2017-Apr-21 18:59N 50°55' E 001°40'0 0.0
2017-Apr-21 18:28N 50°55' E 001°40'1 0.8
2017-Apr-21 17:05N 50°55' E 001°38'0 0.2
2017-Apr-21 17:00N 50°55' E 001°38'  
2017-Apr-19 04:20N 49°48' E 000°18'3 7.1
2017-Apr-19 03:56N 49°47' E 000°14'3 6.2
2017-Apr-19 03:30N 49°45' E 000°11'3 5.2
2017-Apr-19 03:00N 49°43' E 000°09'3 5.6
2017-Apr-19 02:30N 49°41' E 000°06'5 9.7
2017-Apr-19 02:00N 49°36' E 000°03'510.5
2017-Apr-19 01:30N 49°31' E 000°02'4 7.5
2017-Apr-19 01:00N 49°29' E 000°07'0 0.7
2017-Apr-19 00:30N 49°29' E 000°07'0 0.0
2017-Apr-19 00:00N 49°29' E 000°07'0 0.0
2017-Apr-18 23:30N 49°29' E 000°07'0 0.0
2017-Apr-18 23:00N 49°29' E 000°07'0 0.0
2017-Apr-18 22:30N 49°29' E 000°07'0 0.0
2017-Apr-18 22:00N 49°29' E 000°07'0 0.0
2017-Apr-18 21:30N 49°29' E 000°07'0 0.0
2017-Apr-18 21:00N 49°29' E 000°07'0 0.0
2017-Apr-18 20:30N 49°29' E 000°07'0 0.0
2017-Apr-18 20:00N 49°29' E 000°07'0 0.0
2017-Apr-18 19:30N 49°29' E 000°07'0 0.0
2017-Apr-18 19:00N 49°29' E 000°07'0 0.0
2017-Apr-18 18:30N 49°29' E 000°07'0 0.0
2017-Apr-18 18:00N 49°29' E 000°07'0 0.0
2017-Apr-18 17:30N 49°29' E 000°07'0 0.0
2017-Apr-18 17:00N 49°29' E 000°07'0 0.0
2017-Apr-18 16:30N 49°29' E 000°07'0 0.0
2017-Apr-18 16:00N 49°29' E 000°07'0 0.0
2017-Apr-18 15:30N 49°29' E 000°07'0 0.0
2017-Apr-18 15:00N 49°29' E 000°07'0 0.0
2017-Apr-18 14:30N 49°29' E 000°07'0 0.0
2017-Apr-18 13:30N 49°29' E 000°07'0 0.0
2017-Apr-18 13:00N 49°29' E 000°07'0 0.0
2017-Apr-18 12:30N 49°29' E 000°07'0 0.0
2017-Apr-18 12:00N 49°29' E 000°07'0 0.0
2017-Apr-18 11:30N 49°29' E 000°07'0 0.0
2017-Apr-18 11:00N 49°29' E 000°07'0 0.0
2017-Apr-18 10:30N 49°29' E 000°07'0 0.0
2017-Apr-18 10:00N 49°29' E 000°07'0 0.0
2017-Apr-18 09:30N 49°29' E 000°07'0 0.0
2017-Apr-18 09:00N 49°29' E 000°07'0 0.0
2017-Apr-18 08:30N 49°29' E 000°07'0 0.0
2017-Apr-18 08:00N 49°29' E 000°07'0 0.0
2017-Apr-18 07:30N 49°29' E 000°07'0 0.0
2017-Apr-18 07:00N 49°29' E 000°07'0 0.0
2017-Apr-18 06:30N 49°29' E 000°07'0 0.0
2017-Apr-18 06:00N 49°29' E 000°07'0 0.0
2017-Apr-18 05:30N 49°29' E 000°07'0 0.0
2017-Apr-18 05:00N 49°29' E 000°07'0 0.0
2017-Apr-18 04:30N 49°29' E 000°07'0 0.0
2017-Apr-18 04:00N 49°29' E 000°07'0 0.0
2017-Apr-18 03:30N 49°29' E 000°07'0 0.0
2017-Apr-18 03:00N 49°29' E 000°07'0 0.0
2017-Apr-18 02:30N 49°29' E 000°07'0 0.0
2017-Apr-18 02:00N 49°29' E 000°07'0 0.0
2017-Apr-18 01:30N 49°29' E 000°07'0 0.0
2017-Apr-18 01:00N 49°29' E 000°07'0 0.0
2017-Apr-18 00:30N 49°29' E 000°07'0 0.0
2017-Apr-18 00:00N 49°29' E 000°07'0 0.0
2017-Apr-17 23:30N 49°29' E 000°07'0 0.0
2017-Apr-17 23:00N 49°29' E 000°07'0 0.0
2017-Apr-17 22:30N 49°29' E 000°07'0 0.0
2017-Apr-17 22:00N 49°29' E 000°07'0 0.0
2017-Apr-17 21:30N 49°29' E 000°07'0 0.0
2017-Apr-17 21:00N 49°29' E 000°07'0 0.0
2017-Apr-17 20:30N 49°29' E 000°07'0 0.0
2017-Apr-17 20:00N 49°29' E 000°07'0 0.0
2017-Apr-17 19:30N 49°29' E 000°07'0 0.0
2017-Apr-17 19:00N 49°29' E 000°07'0 0.0
2017-Apr-17 18:30N 49°29' E 000°07'0 0.0
2017-Apr-17 18:00N 49°29' E 000°07'0 0.0
2017-Apr-17 17:30N 49°29' E 000°07'0 0.0
2017-Apr-17 17:00N 49°29' E 000°07'0 0.0
2017-Apr-17 16:30N 49°29' E 000°07'0 0.0
2017-Apr-17 16:00N 49°29' E 000°07'0 0.0
2017-Apr-17 15:30N 49°29' E 000°07'0 0.0
2017-Apr-17 15:00N 49°29' E 000°07'0 0.0
2017-Apr-17 14:30N 49°29' E 000°07'0 0.0
2017-Apr-17 13:30N 49°29' E 000°07'0 0.0
2017-Apr-17 13:01N 49°29' E 000°07'0 0.0
2017-Apr-17 12:30N 49°29' E 000°07'0 0.0
2017-Apr-17 12:00N 49°29' E 000°07'0 0.0
2017-Apr-17 11:30N 49°29' E 000°07'0 0.0
2017-Apr-17 11:00N 49°29' E 000°07'0 0.0
2017-Apr-17 10:30N 49°29' E 000°07'0 0.0
2017-Apr-17 10:00N 49°29' E 000°07'0 0.0
2017-Apr-17 09:30N 49°29' E 000°07'0 0.0
2017-Apr-17 09:00N 49°29' E 000°07'0 0.0
2017-Apr-17 08:30N 49°29' E 000°07'0 0.0
2017-Apr-17 08:00N 49°29' E 000°07'0 0.0
2017-Apr-17 07:30N 49°29' E 000°07'0 0.0
2017-Apr-17 07:00N 49°29' E 000°07'0 0.0
2017-Apr-17 06:30N 49°29' E 000°07'0 0.0
2017-Apr-17 06:00N 49°29' E 000°07'0 0.0
2017-Apr-17 05:30N 49°29' E 000°07'0 0.0
2017-Apr-17 05:00N 49°29' E 000°07'0 0.0
2017-Apr-17 04:30N 49°29' E 000°07'0 0.0
2017-Apr-17 04:00N 49°29' E 000°07'0 0.0
2017-Apr-17 03:30N 49°29' E 000°07'0 0.0
2017-Apr-17 03:00N 49°29' E 000°07'0 0.0
2017-Apr-17 02:30N 49°29' E 000°07'0 0.0
2017-Apr-17 02:00N 49°29' E 000°07'0 0.0
2017-Apr-17 01:30N 49°29' E 000°07'0 0.0
2017-Apr-17 01:00N 49°29' E 000°07'0 0.0
2017-Apr-17 00:30N 49°29' E 000°07'0 0.0
2017-Apr-17 00:00N 49°29' E 000°07'0 0.0
2017-Apr-16 23:30N 49°29' E 000°07'0 0.0
2017-Apr-16 23:00N 49°29' E 000°07'0 0.0
2017-Apr-16 22:30N 49°29' E 000°07'0 0.0
2017-Apr-16 22:00N 49°29' E 000°07'0 0.0
2017-Apr-16 21:30N 49°29' E 000°07'0 0.0
2017-Apr-16 21:00N 49°29' E 000°07'0 0.0
2017-Apr-16 20:30N 49°29' E 000°07'0 0.0
2017-Apr-16 20:00N 49°29' E 000°07'0 1.0
2017-Apr-16 19:30N 49°29' E 000°07'2 4.7
2017-Apr-16 19:00N 49°30' E 000°03'5 9.4
2017-Apr-16 18:30N 49°28' W 000°03'5 9.4
2017-Apr-16 18:00N 49°25' W 000°09'5 9.6
2017-Apr-16 17:30N 49°23' W 000°16'2 4.7
2017-Apr-16 17:00N 49°21' W 000°18'2 3.8
2017-Apr-16 16:30N 49°20' W 000°16'1 2.9
2017-Apr-16 16:00N 49°20' W 000°13'2 3.9
2017-Apr-16 15:28N 49°21' W 000°16'1 2.6
2017-Apr-16 14:57N 49°21' W 000°18'2 4.1
2017-Apr-16 14:30N 49°20' W 000°16'0 0.5
2017-Apr-16 13:30N 49°21' W 000°16'1 2.3
2017-Apr-16 13:00N 49°21' W 000°18'2 4.0
2017-Apr-16 12:30N 49°20' W 000°15'1 1.1
2017-Apr-16 11:59N 49°20' W 000°14'2 4.0
2017-Apr-16 11:31N 49°21' W 000°17'0 0.9
2017-Apr-16 11:00N 49°21' W 000°17'2 3.9
2017-Apr-16 10:30N 49°20' W 000°14'0 0.8
2017-Apr-16 10:00N 49°20' W 000°13'2 4.1
2017-Apr-16 09:31N 49°21' W 000°16'1 2.0
2017-Apr-16 09:00N 49°21' W 000°18'2 3.8
2017-Apr-16 08:30N 49°20' W 000°15'1 1.2
2017-Apr-16 08:00N 49°20' W 000°14'2 3.9
2017-Apr-16 07:27N 49°21' W 000°17'1 2.0
2017-Apr-16 07:00N 49°21' W 000°18'2 3.6
2017-Apr-16 06:30N 49°20' W 000°16'1 2.0
2017-Apr-16 06:00N 49°20' W 000°14'2 4.0
2017-Apr-16 05:30N 49°21' W 000°17'1 1.9
2017-Apr-16 04:57N 49°21' W 000°19'0 0.0
2017-Apr-16 04:30N 49°21' W 000°19'0 0.0
2017-Apr-16 04:00N 49°21' W 000°19'0 0.0
2017-Apr-16 03:30N 49°21' W 000°19'0 0.1
2017-Apr-16 02:57N 49°21' W 000°19'0 0.1
2017-Apr-16 02:30N 49°21' W 000°19'0 0.0
2017-Apr-16 02:00N 49°21' W 000°18'0 0.0
2017-Apr-16 01:27N 49°21' W 000°18'0 0.0
2017-Apr-16 00:57N 49°21' W 000°18'0 0.1
2017-Apr-16 00:30N 49°21' W 000°18'0 0.0
2017-Apr-16 00:00N 49°21' W 000°18'0 0.0
2017-Apr-15 23:27N 49°21' W 000°18'0 0.0
2017-Apr-15 23:00N 49°21' W 000°18'0 0.0
2017-Apr-15 22:30N 49°21' W 000°18'0 0.0
2017-Apr-15 22:00N 49°21' W 000°18'0 0.0
2017-Apr-15 21:30N 49°21' W 000°18'0 0.0
2017-Apr-15 21:00N 49°21' W 000°18'0 0.0
2017-Apr-15 20:24N 49°21' W 000°18'0 0.0
2017-Apr-15 20:00N 49°21' W 000°18'0 0.0
2017-Apr-15 19:24N 49°21' W 000°18'0 0.0
2017-Apr-15 18:57N 49°21' W 000°18'0 0.1
2017-Apr-15 18:27N 49°21' W 000°19'0 0.1
2017-Apr-15 18:00N 49°21' W 000°19'0 0.1
2017-Apr-15 17:30N 49°21' W 000°19'0 0.0
2017-Apr-15 17:00N 49°21' W 000°19'0 0.0
2017-Apr-15 16:30N 49°21' W 000°19'0 0.0
2017-Apr-15 15:54N 49°21' W 000°19'0 0.0
2017-Apr-15 15:27N 49°21' W 000°19'0 0.0
2017-Apr-15 15:00N 49°21' W 000°19'0 0.1
2017-Apr-15 14:30N 49°21' W 000°19'0 0.0
2017-Apr-15 13:27N 49°21' W 000°18'0 0.0
2017-Apr-15 13:00N 49°21' W 000°18'0 0.0
2017-Apr-15 12:30N 49°21' W 000°18'0 0.0
2017-Apr-15 11:57N 49°21' W 000°18'0 0.0
2017-Apr-15 11:24N 49°21' W 000°18'0 0.0
2017-Apr-15 11:00N 49°21' W 000°18'0 0.0
2017-Apr-15 10:30N 49°21' W 000°18'0 0.0
2017-Apr-15 09:57N 49°21' W 000°18'0 0.0
2017-Apr-15 09:27N 49°21' W 000°18'0 0.0
2017-Apr-15 08:57N 49°21' W 000°18'0 0.0
2017-Apr-15 08:30N 49°21' W 000°18'0 0.0
2017-Apr-15 08:00N 49°21' W 000°18'0 0.0
2017-Apr-15 07:21N 49°21' W 000°18'0 0.1
2017-Apr-15 07:00N 49°21' W 000°18'0 0.1
2017-Apr-15 06:30N 49°21' W 000°19'0 0.1
2017-Apr-15 06:00N 49°21' W 000°19'0 0.0
2017-Apr-15 05:30N 49°21' W 000°19'0 0.0
2017-Apr-15 05:00N 49°21' W 000°19'3 4.8
2017-Apr-15 04:29N 49°20' W 000°15'0 0.0
2017-Apr-15 03:59N 49°20' W 000°15'0 0.0
2017-Apr-15 03:29N 49°20' W 000°15'0 0.0
2017-Apr-15 02:53N 49°20' W 000°15'0 0.0
2017-Apr-15 02:29N 49°20' W 000°15'0 0.1
2017-Apr-15 01:59N 49°20' W 000°15'0 0.0
2017-Apr-15 01:29N 49°20' W 000°15'0 0.0
2017-Apr-15 00:59N 49°20' W 000°15'0 0.0
2017-Apr-15 00:29N 49°20' W 000°15'0 0.0
2017-Apr-14 23:59N 49°20' W 000°15'0 0.0
2017-Apr-14 23:29N 49°20' W 000°15'0 0.0
2017-Apr-14 22:59N 49°20' W 000°15'0 0.0
2017-Apr-14 22:29N 49°20' W 000°15'3 6.2
2017-Apr-14 22:01N 49°21' W 000°12'5 9.4
2017-Apr-14 21:30N 49°25' W 000°07'5 9.5
2017-Apr-14 21:01N 49°28' W 000°01'4 8.3
2017-Apr-14 20:30N 49°29' E 000°05'1 2.7
2017-Apr-14 19:59N 49°29' E 000°07'0 0.9
2017-Apr-14 19:28N 49°29' E 000°07'0 0.0
2017-Apr-14 18:58N 49°29' E 000°07'0 0.0
2017-Apr-14 18:28N 49°29' E 000°07'0 0.0
2017-Apr-14 17:58N 49°29' E 000°07'0 0.0
2017-Apr-14 17:28N 49°29' E 000°07'0 0.0
2017-Apr-14 16:58N 49°29' E 000°07'0 0.0
2017-Apr-14 16:28N 49°29' E 000°07'0 0.0
2017-Apr-14 15:58N 49°29' E 000°07'0 0.0
2017-Apr-14 15:28N 49°29' E 000°07'0 0.0
2017-Apr-14 14:58N 49°29' E 000°07'0 0.0
2017-Apr-14 14:28N 49°29' E 000°07'0 0.0
2017-Apr-14 13:28N 49°29' E 000°07'0 0.0
2017-Apr-14 12:58N 49°29' E 000°07'0 0.0
2017-Apr-14 12:28N 49°29' E 000°07'0 0.0
2017-Apr-14 11:58N 49°29' E 000°07'0 0.0
2017-Apr-14 11:28N 49°29' E 000°07'  
Track history (hours):
 
Tides and Currents Weather Stations Pressure Air Temp Water Temp Dewpoint Dewpoint Depression Visibility Wind Speed Wind Dir Waves Ship Positions

Cotes De La Manche

Last reported at 2017-Apr-24 11:14 UTC. Time now 2017-Apr-26 04:02 UTC.
Position N 50°39' W 000°55'.

Length 25 m; draft 3.7 m.

Type: . MMSI: 227091000.

Date/timePositionNaut miles runAvg speedWind from/ knotsBaromVisibWave heightAir tempDewpointWater temp
2017-Apr-24 11:14N 50°39' W 000°55'1 5.6
2017-Apr-24 11:00N 50°41' W 000°54'1 1.6
2017-Apr-24 10:25N 50°41' W 000°53'2 3.9
2017-Apr-24 10:00N 50°40' W 000°51'8 2.1
2017-Apr-24 06:05N 50°37' W 000°39'1 5.9
2017-Apr-24 05:55N 50°38' W 000°39'2 5.2
2017-Apr-24 05:29N 50°40' W 000°39'2 5.1
2017-Apr-24 05:00N 50°42' W 000°39'0 0.6
2017-Apr-24 04:28N 50°43' W 000°39'0 0.0
2017-Apr-24 03:58N 50°43' W 000°39'0 0.0
2017-Apr-24 03:01N 50°43' W 000°39'0 0.0
2017-Apr-24 02:58N 50°43' W 000°39'0 0.0
2017-Apr-24 02:28N 50°43' W 000°39'0 0.1
2017-Apr-24 01:58N 50°43' W 000°39'0 0.1
2017-Apr-24 01:28N 50°43' W 000°39'0 0.0
2017-Apr-24 00:49N 50°43' W 000°39'0 0.0
2017-Apr-24 00:25N 50°43' W 000°39'0 0.1
2017-Apr-23 23:55N 50°43' W 000°39'0 0.1
2017-Apr-23 23:25N 50°43' W 000°39'0 0.0
2017-Apr-23 22:55N 50°43' W 000°39'0 0.0
2017-Apr-23 22:28N 50°43' W 000°39'0 0.0
2017-Apr-23 21:55N 50°43' W 000°39'0 0.0
2017-Apr-23 21:28N 50°43' W 000°39'0 0.0
2017-Apr-23 20:58N 50°43' W 000°39'0 0.0
2017-Apr-23 20:28N 50°43' W 000°39'2 3.5
2017-Apr-23 20:01N 50°42' W 000°36'3 5.6
2017-Apr-23 19:30N 50°41' W 000°32'3 5.5
2017-Apr-23 19:00N 50°40' W 000°29'2 5.0
2017-Apr-23 18:30N 50°38' W 000°25'3 5.3
2017-Apr-23 18:00N 50°37' W 000°21'3 5.2
2017-Apr-23 17:30N 50°37' W 000°17'3 5.2
2017-Apr-23 17:00N 50°36' W 000°13'1 2.0
2017-Apr-23 16:30N 50°36' W 000°12'0 0.5
2017-Apr-23 16:00N 50°36' W 000°12'3 5.0
2017-Apr-23 15:30N 50°37' W 000°08'2 5.1
2017-Apr-23 15:00N 50°38' W 000°05'2 1.9
2017-Apr-23 14:00N 50°39' W 000°02'2 3.1
2017-Apr-23 13:30N 50°39' E 000°00'3 5.2
2017-Apr-23 13:00N 50°40' E 000°04'3 5.1
2017-Apr-23 12:30N 50°42' E 000°07'1 2.1
2017-Apr-23 12:00N 50°42' E 000°09'1 2.5
2017-Apr-23 11:30N 50°42' E 000°11'3 5.2
2017-Apr-23 10:55N 50°41' E 000°16'2 5.2
2017-Apr-23 10:30N 50°41' E 000°19'3 5.0
2017-Apr-23 10:00N 50°41' E 000°23'2 3.8
2017-Apr-23 09:30N 50°40' E 000°26'0 0.5
2017-Apr-23 09:00N 50°40' E 000°26'1 2.1
2017-Apr-23 08:30N 50°40' E 000°27'3 5.2
2017-Apr-23 08:00N 50°41' E 000°31'3 5.0
2017-Apr-23 07:30N 50°42' E 000°35'2 4.8
2017-Apr-23 07:00N 50°43' E 000°38'2 3.6
2017-Apr-23 06:28N 50°44' E 000°41'0 0.5
2017-Apr-23 06:01N 50°44' E 000°41'2 4.3
2017-Apr-23 05:30N 50°46' E 000°41'3 5.0
2017-Apr-23 05:00N 50°49' E 000°42'2 5.0
2017-Apr-23 04:30N 50°51' E 000°43'0 0.0
2017-Apr-22 17:54N 50°51' E 000°43'5 3.3
2017-Apr-22 16:14N 50°49' E 000°51'19 3.5
2017-Apr-22 10:41N 51°01' E 001°16'1 5.0
2017-Apr-22 10:29N 51°02' E 001°17'2 5.0
2017-Apr-22 09:59N 51°04' E 001°19'2 4.5
2017-Apr-22 09:30N 51°05' E 001°22'1 1.1
2017-Apr-22 09:00N 51°05' E 001°23'2 3.9
2017-Apr-22 08:29N 51°03' E 001°24'4 2.8
2017-Apr-22 07:06N 50°59' E 001°27'1 3.2
2017-Apr-22 06:51N 50°59' E 001°28'9 1.0
2017-Apr-21 21:47N 50°55' E 001°40'0 0.0
2017-Apr-21 21:21N 50°55' E 001°40'0 0.0
2017-Apr-21 20:57N 50°55' E 001°40'0 0.0
2017-Apr-21 20:22N 50°55' E 001°40'0 0.0
2017-Apr-21 19:55N 50°55' E 001°40'0 0.0
2017-Apr-21 19:29N 50°55' E 001°40'0 0.0
2017-Apr-21 18:59N 50°55' E 001°40'0 0.0
2017-Apr-21 18:28N 50°55' E 001°40'1 0.8
2017-Apr-21 17:05N 50°55' E 001°38'0 0.2
2017-Apr-21 17:00N 50°55' E 001°38'  
2017-Apr-19 04:20N 49°48' E 000°18'3 7.1
2017-Apr-19 03:56N 49°47' E 000°14'3 6.2
2017-Apr-19 03:30N 49°45' E 000°11'3 5.2
2017-Apr-19 03:00N 49°43' E 000°09'3 5.6
2017-Apr-19 02:30N 49°41' E 000°06'5 9.7
2017-Apr-19 02:00N 49°36' E 000°03'510.5
2017-Apr-19 01:30N 49°31' E 000°02'4 7.5
2017-Apr-19 01:00N 49°29' E 000°07'0 0.7
2017-Apr-19 00:30N 49°29' E 000°07'0 0.0
2017-Apr-19 00:00N 49°29' E 000°07'0 0.0
2017-Apr-18 23:30N 49°29' E 000°07'0 0.0
2017-Apr-18 23:00N 49°29' E 000°07'0 0.0
2017-Apr-18 22:30N 49°29' E 000°07'0 0.0
2017-Apr-18 22:00N 49°29' E 000°07'0 0.0
2017-Apr-18 21:30N 49°29' E 000°07'0 0.0
2017-Apr-18 21:00N 49°29' E 000°07'0 0.0
2017-Apr-18 20:30N 49°29' E 000°07'0 0.0
2017-Apr-18 20:00N 49°29' E 000°07'0 0.0
2017-Apr-18 19:30N 49°29' E 000°07'0 0.0
2017-Apr-18 19:00N 49°29' E 000°07'0 0.0
2017-Apr-18 18:30N 49°29' E 000°07'0 0.0
2017-Apr-18 18:00N 49°29' E 000°07'0 0.0
2017-Apr-18 17:30N 49°29' E 000°07'0 0.0
2017-Apr-18 17:00N 49°29' E 000°07'0 0.0
2017-Apr-18 16:30N 49°29' E 000°07'0 0.0
2017-Apr-18 16:00N 49°29' E 000°07'0 0.0
2017-Apr-18 15:30N 49°29' E 000°07'0 0.0
2017-Apr-18 15:00N 49°29' E 000°07'0 0.0
2017-Apr-18 14:30N 49°29' E 000°07'0 0.0
2017-Apr-18 13:30N 49°29' E 000°07'0 0.0
2017-Apr-18 13:00N 49°29' E 000°07'0 0.0
2017-Apr-18 12:30N 49°29' E 000°07'0 0.0
2017-Apr-18 12:00N 49°29' E 000°07'0 0.0
2017-Apr-18 11:30N 49°29' E 000°07'0 0.0
2017-Apr-18 11:00N 49°29' E 000°07'0 0.0
2017-Apr-18 10:30N 49°29' E 000°07'0 0.0
2017-Apr-18 10:00N 49°29' E 000°07'0 0.0
2017-Apr-18 09:30N 49°29' E 000°07'0 0.0
2017-Apr-18 09:00N 49°29' E 000°07'0 0.0
2017-Apr-18 08:30N 49°29' E 000°07'0 0.0
2017-Apr-18 08:00N 49°29' E 000°07'0 0.0
2017-Apr-18 07:30N 49°29' E 000°07'0 0.0
2017-Apr-18 07:00N 49°29' E 000°07'0 0.0
2017-Apr-18 06:30N 49°29' E 000°07'0 0.0
2017-Apr-18 06:00N 49°29' E 000°07'0 0.0
2017-Apr-18 05:30N 49°29' E 000°07'0 0.0
2017-Apr-18 05:00N 49°29' E 000°07'0 0.0
2017-Apr-18 04:30N 49°29' E 000°07'0 0.0
2017-Apr-18 04:00N 49°29' E 000°07'0 0.0
2017-Apr-18 03:30N 49°29' E 000°07'0 0.0
2017-Apr-18 03:00N 49°29' E 000°07'0 0.0
2017-Apr-18 02:30N 49°29' E 000°07'0 0.0
2017-Apr-18 02:00N 49°29' E 000°07'0 0.0
2017-Apr-18 01:30N 49°29' E 000°07'0 0.0
2017-Apr-18 01:00N 49°29' E 000°07'0 0.0
2017-Apr-18 00:30N 49°29' E 000°07'0 0.0
2017-Apr-18 00:00N 49°29' E 000°07'0 0.0
2017-Apr-17 23:30N 49°29' E 000°07'0 0.0
2017-Apr-17 23:00N 49°29' E 000°07'0 0.0
2017-Apr-17 22:30N 49°29' E 000°07'0 0.0
2017-Apr-17 22:00N 49°29' E 000°07'0 0.0
2017-Apr-17 21:30N 49°29' E 000°07'0 0.0
2017-Apr-17 21:00N 49°29' E 000°07'0 0.0
2017-Apr-17 20:30N 49°29' E 000°07'0 0.0
2017-Apr-17 20:00N 49°29' E 000°07'0 0.0
2017-Apr-17 19:30N 49°29' E 000°07'0 0.0
2017-Apr-17 19:00N 49°29' E 000°07'0 0.0
2017-Apr-17 18:30N 49°29' E 000°07'0 0.0
2017-Apr-17 18:00N 49°29' E 000°07'0 0.0
2017-Apr-17 17:30N 49°29' E 000°07'0 0.0
2017-Apr-17 17:00N 49°29' E 000°07'0 0.0
2017-Apr-17 16:30N 49°29' E 000°07'0 0.0
2017-Apr-17 16:00N 49°29' E 000°07'0 0.0
2017-Apr-17 15:30N 49°29' E 000°07'0 0.0
2017-Apr-17 15:00N 49°29' E 000°07'0 0.0
2017-Apr-17 14:30N 49°29' E 000°07'0 0.0
2017-Apr-17 13:30N 49°29' E 000°07'0 0.0
2017-Apr-17 13:01N 49°29' E 000°07'0 0.0
2017-Apr-17 12:30N 49°29' E 000°07'0 0.0
2017-Apr-17 12:00N 49°29' E 000°07'0 0.0
2017-Apr-17 11:30N 49°29' E 000°07'0 0.0
2017-Apr-17 11:00N 49°29' E 000°07'0 0.0
2017-Apr-17 10:30N 49°29' E 000°07'0 0.0
2017-Apr-17 10:00N 49°29' E 000°07'0 0.0
2017-Apr-17 09:30N 49°29' E 000°07'0 0.0
2017-Apr-17 09:00N 49°29' E 000°07'0 0.0
2017-Apr-17 08:30N 49°29' E 000°07'0 0.0
2017-Apr-17 08:00N 49°29' E 000°07'0 0.0
2017-Apr-17 07:30N 49°29' E 000°07'0 0.0
2017-Apr-17 07:00N 49°29' E 000°07'0 0.0
2017-Apr-17 06:30N 49°29' E 000°07'0 0.0
2017-Apr-17 06:00N 49°29' E 000°07'0 0.0
2017-Apr-17 05:30N 49°29' E 000°07'0 0.0
2017-Apr-17 05:00N 49°29' E 000°07'0 0.0
2017-Apr-17 04:30N 49°29' E 000°07'0 0.0
2017-Apr-17 04:00N 49°29' E 000°07'0 0.0
2017-Apr-17 03:30N 49°29' E 000°07'0 0.0
2017-Apr-17 03:00N 49°29' E 000°07'0 0.0
2017-Apr-17 02:30N 49°29' E 000°07'0 0.0
2017-Apr-17 02:00N 49°29' E 000°07'0 0.0
2017-Apr-17 01:30N 49°29' E 000°07'0 0.0
2017-Apr-17 01:00N 49°29' E 000°07'0 0.0
2017-Apr-17 00:30N 49°29' E 000°07'0 0.0
2017-Apr-17 00:00N 49°29' E 000°07'0 0.0
2017-Apr-16 23:30N 49°29' E 000°07'0 0.0
2017-Apr-16 23:00N 49°29' E 000°07'0 0.0
2017-Apr-16 22:30N 49°29' E 000°07'0 0.0
2017-Apr-16 22:00N 49°29' E 000°07'0 0.0
2017-Apr-16 21:30N 49°29' E 000°07'0 0.0
2017-Apr-16 21:00N 49°29' E 000°07'0 0.0
2017-Apr-16 20:30N 49°29' E 000°07'0 0.0
2017-Apr-16 20:00N 49°29' E 000°07'0 1.0
2017-Apr-16 19:30N 49°29' E 000°07'2 4.7
2017-Apr-16 19:00N 49°30' E 000°03'5 9.4
2017-Apr-16 18:30N 49°28' W 000°03'5 9.4
2017-Apr-16 18:00N 49°25' W 000°09'5 9.6
2017-Apr-16 17:30N 49°23' W 000°16'2 4.7
2017-Apr-16 17:00N 49°21' W 000°18'2 3.8
2017-Apr-16 16:30N 49°20' W 000°16'1 2.9
2017-Apr-16 16:00N 49°20' W 000°13'2 3.9
2017-Apr-16 15:28N 49°21' W 000°16'1 2.6
2017-Apr-16 14:57N 49°21' W 000°18'2 4.1
2017-Apr-16 14:30N 49°20' W 000°16'0 0.5
2017-Apr-16 13:30N 49°21' W 000°16'1 2.3
2017-Apr-16 13:00N 49°21' W 000°18'2 4.0
2017-Apr-16 12:30N 49°20' W 000°15'1 1.1
2017-Apr-16 11:59N 49°20' W 000°14'2 4.0
2017-Apr-16 11:31N 49°21' W 000°17'0 0.9
2017-Apr-16 11:00N 49°21' W 000°17'2 3.9
2017-Apr-16 10:30N 49°20' W 000°14'0 0.8
2017-Apr-16 10:00N 49°20' W 000°13'2 4.1
2017-Apr-16 09:31N 49°21' W 000°16'1 2.0
2017-Apr-16 09:00N 49°21' W 000°18'2 3.8
2017-Apr-16 08:30N 49°20' W 000°15'1 1.2
2017-Apr-16 08:00N 49°20' W 000°14'2 3.9
2017-Apr-16 07:27N 49°21' W 000°17'1 2.0
2017-Apr-16 07:00N 49°21' W 000°18'2 3.6
2017-Apr-16 06:30N 49°20' W 000°16'1 2.0
2017-Apr-16 06:00N 49°20' W 000°14'2 4.0
2017-Apr-16 05:30N 49°21' W 000°17'1 1.9
2017-Apr-16 04:57N 49°21' W 000°19'0 0.0
2017-Apr-16 04:30N 49°21' W 000°19'0 0.0
2017-Apr-16 04:00N 49°21' W 000°19'0 0.0
2017-Apr-16 03:30N 49°21' W 000°19'0 0.1
2017-Apr-16 02:57N 49°21' W 000°19'0 0.1
2017-Apr-16 02:30N 49°21' W 000°19'0 0.0
2017-Apr-16 02:00N 49°21' W 000°18'0 0.0
2017-Apr-16 01:27N 49°21' W 000°18'0 0.0
2017-Apr-16 00:57N 49°21' W 000°18'0 0.1
2017-Apr-16 00:30N 49°21' W 000°18'0 0.0
2017-Apr-16 00:00N 49°21' W 000°18'0 0.0
2017-Apr-15 23:27N 49°21' W 000°18'0 0.0
2017-Apr-15 23:00N 49°21' W 000°18'0 0.0
2017-Apr-15 22:30N 49°21' W 000°18'0 0.0
2017-Apr-15 22:00N 49°21' W 000°18'0 0.0
2017-Apr-15 21:30N 49°21' W 000°18'0 0.0
2017-Apr-15 21:00N 49°21' W 000°18'0 0.0
2017-Apr-15 20:24N 49°21' W 000°18'0 0.0
2017-Apr-15 20:00N 49°21' W 000°18'0 0.0
2017-Apr-15 19:24N 49°21' W 000°18'0 0.0
2017-Apr-15 18:57N 49°21' W 000°18'0 0.1
2017-Apr-15 18:27N 49°21' W 000°19'0 0.1
2017-Apr-15 18:00N 49°21' W 000°19'0 0.1
2017-Apr-15 17:30N 49°21' W 000°19'0 0.0
2017-Apr-15 17:00N 49°21' W 000°19'0 0.0
2017-Apr-15 16:30N 49°21' W 000°19'0 0.0
2017-Apr-15 15:54N 49°21' W 000°19'0 0.0
2017-Apr-15 15:27N 49°21' W 000°19'0 0.0
2017-Apr-15 15:00N 49°21' W 000°19'0 0.1
2017-Apr-15 14:30N 49°21' W 000°19'0 0.0
2017-Apr-15 13:27N 49°21' W 000°18'0 0.0
2017-Apr-15 13:00N 49°21' W 000°18'0 0.0
2017-Apr-15 12:30N 49°21' W 000°18'0 0.0
2017-Apr-15 11:57N 49°21' W 000°18'0 0.0
2017-Apr-15 11:24N 49°21' W 000°18'0 0.0
2017-Apr-15 11:00N 49°21' W 000°18'0 0.0
2017-Apr-15 10:30N 49°21' W 000°18'0 0.0
2017-Apr-15 09:57N 49°21' W 000°18'0 0.0
2017-Apr-15 09:27N 49°21' W 000°18'0 0.0
2017-Apr-15 08:57N 49°21' W 000°18'0 0.0
2017-Apr-15 08:30N 49°21' W 000°18'0 0.0
2017-Apr-15 08:00N 49°21' W 000°18'0 0.0
2017-Apr-15 07:21N 49°21' W 000°18'0 0.1
2017-Apr-15 07:00N 49°21' W 000°18'0 0.1
2017-Apr-15 06:30N 49°21' W 000°19'0 0.1
2017-Apr-15 06:00N 49°21' W 000°19'0 0.0
2017-Apr-15 05:30N 49°21' W 000°19'0 0.0
2017-Apr-15 05:00N 49°21' W 000°19'3 4.8
2017-Apr-15 04:29N 49°20' W 000°15'0 0.0
2017-Apr-15 03:59N 49°20' W 000°15'0 0.0
2017-Apr-15 03:29N 49°20' W 000°15'0 0.0
2017-Apr-15 02:53N 49°20' W 000°15'0 0.0
2017-Apr-15 02:29N 49°20' W 000°15'0 0.1
2017-Apr-15 01:59N 49°20' W 000°15'0 0.0
2017-Apr-15 01:29N 49°20' W 000°15'0 0.0
2017-Apr-15 00:59N 49°20' W 000°15'0 0.0
2017-Apr-15 00:29N 49°20' W 000°15'0 0.0
2017-Apr-14 23:59N 49°20' W 000°15'0 0.0
2017-Apr-14 23:29N 49°20' W 000°15'0 0.0
2017-Apr-14 22:59N 49°20' W 000°15'0 0.0
2017-Apr-14 22:29N 49°20' W 000°15'3 6.2
2017-Apr-14 22:01N 49°21' W 000°12'5 9.4
2017-Apr-14 21:30N 49°25' W 000°07'5 9.5
2017-Apr-14 21:01N 49°28' W 000°01'4 8.3
2017-Apr-14 20:30N 49°29' E 000°05'1 2.7
2017-Apr-14 19:59N 49°29' E 000°07'0 0.9
2017-Apr-14 19:28N 49°29' E 000°07'0 0.0
2017-Apr-14 18:58N 49°29' E 000°07'0 0.0
2017-Apr-14 18:28N 49°29' E 000°07'0 0.0
2017-Apr-14 17:58N 49°29' E 000°07'0 0.0
2017-Apr-14 17:28N 49°29' E 000°07'0 0.0
2017-Apr-14 16:58N 49°29' E 000°07'0 0.0
2017-Apr-14 16:28N 49°29' E 000°07'0 0.0
2017-Apr-14 15:58N 49°29' E 000°07'0 0.0
2017-Apr-14 15:28N 49°29' E 000°07'0 0.0
2017-Apr-14 14:58N 49°29' E 000°07'0 0.0
2017-Apr-14 14:28N 49°29' E 000°07'0 0.0
2017-Apr-14 13:28N 49°29' E 000°07'0 0.0
2017-Apr-14 12:58N 49°29' E 000°07'0 0.0
2017-Apr-14 12:28N 49°29' E 000°07'0 0.0
2017-Apr-14 11:58N 49°29' E 000°07'0 0.0
2017-Apr-14 11:28N 49°29' E 000°07'  

Dump ship's entire track history